sensor_id;sensor_type;location;lat;lon;timestamp;P1;durP1;ratioP1;P2;durP2;ratioP2
19830;SDS011;10076;52.008;4.708;2023-08-08T00:00:03;8.90;;;1.90;;
19830;SDS011;10076;52.008;4.708;2023-08-08T00:02:29;8.38;;;2.28;;
19830;SDS011;10076;52.008;4.708;2023-08-08T00:04:55;3.08;;;1.70;;
19830;SDS011;10076;52.008;4.708;2023-08-08T00:07:20;12.80;;;2.28;;
19830;SDS011;10076;52.008;4.708;2023-08-08T00:09:45;5.95;;;1.85;;
19830;SDS011;10076;52.008;4.708;2023-08-08T00:12:11;6.03;;;1.70;;
19830;SDS011;10076;52.008;4.708;2023-08-08T00:14:36;4.15;;;1.50;;
19830;SDS011;10076;52.008;4.708;2023-08-08T00:17:02;5.90;;;2.10;;
19830;SDS011;10076;52.008;4.708;2023-08-08T00:19:27;7.68;;;1.60;;
19830;SDS011;10076;52.008;4.708;2023-08-08T00:21:53;3.92;;;1.50;;
19830;SDS011;10076;52.008;4.708;2023-08-08T00:24:18;6.65;;;1.92;;
19830;SDS011;10076;52.008;4.708;2023-08-08T00:26:43;5.18;;;2.15;;
19830;SDS011;10076;52.008;4.708;2023-08-08T00:29:09;3.80;;;1.85;;
19830;SDS011;10076;52.008;4.708;2023-08-08T00:31:34;7.63;;;2.15;;
19830;SDS011;10076;52.008;4.708;2023-08-08T00:33:59;6.78;;;1.70;;
19830;SDS011;10076;52.008;4.708;2023-08-08T00:36:24;6.53;;;1.50;;
19830;SDS011;10076;52.008;4.708;2023-08-08T00:38:50;5.97;;;2.03;;
19830;SDS011;10076;52.008;4.708;2023-08-08T00:41:15;6.60;;;1.75;;
19830;SDS011;10076;52.008;4.708;2023-08-08T00:43:41;5.25;;;2.03;;
19830;SDS011;10076;52.008;4.708;2023-08-08T00:46:08;5.10;;;1.48;;
19830;SDS011;10076;52.008;4.708;2023-08-08T00:48:33;5.70;;;1.60;;
19830;SDS011;10076;52.008;4.708;2023-08-08T00:50:59;3.47;;;1.48;;
19830;SDS011;10076;52.008;4.708;2023-08-08T00:53:24;4.78;;;1.80;;
19830;SDS011;10076;52.008;4.708;2023-08-08T00:55:53;9.45;;;2.72;;
19830;SDS011;10076;52.008;4.708;2023-08-08T00:58:19;3.70;;;1.58;;
19830;SDS011;10076;52.008;4.708;2023-08-08T01:00:44;6.75;;;2.00;;
19830;SDS011;10076;52.008;4.708;2023-08-08T01:03:10;5.32;;;1.83;;
19830;SDS011;10076;52.008;4.708;2023-08-08T01:05:37;4.03;;;1.63;;
19830;SDS011;10076;52.008;4.708;2023-08-08T01:08:08;2.88;;;1.85;;
19830;SDS011;10076;52.008;4.708;2023-08-08T01:10:37;5.45;;;1.75;;
19830;SDS011;10076;52.008;4.708;2023-08-08T01:13:05;3.10;;;1.92;;
19830;SDS011;10076;52.008;4.708;2023-08-08T01:15:35;4.63;;;1.75;;
19830;SDS011;10076;52.008;4.708;2023-08-08T01:18:05;4.60;;;1.55;;
19830;SDS011;10076;52.008;4.708;2023-08-08T01:20:33;4.50;;;1.52;;
19830;SDS011;10076;52.008;4.708;2023-08-08T01:25:33;2.47;;;1.42;;
19830;SDS011;10076;52.008;4.708;2023-08-08T01:27:59;6.13;;;1.70;;
19830;SDS011;10076;52.008;4.708;2023-08-08T01:30:24;3.08;;;1.73;;
19830;SDS011;10076;52.008;4.708;2023-08-08T01:32:50;1.80;;;1.45;;
19830;SDS011;10076;52.008;4.708;2023-08-08T01:35:15;1.60;;;1.40;;
19830;SDS011;10076;52.008;4.708;2023-08-08T01:40:06;5.78;;;1.70;;
19830;SDS011;10076;52.008;4.708;2023-08-08T01:42:35;1.60;;;1.27;;
19830;SDS011;10076;52.008;4.708;2023-08-08T01:45:01;4.22;;;1.65;;
19830;SDS011;10076;52.008;4.708;2023-08-08T01:47:27;5.22;;;1.70;;
19830;SDS011;10076;52.008;4.708;2023-08-08T01:49:52;2.50;;;1.40;;
19830;SDS011;10076;52.008;4.708;2023-08-08T01:52:18;6.47;;;1.58;;
19830;SDS011;10076;52.008;4.708;2023-08-08T01:54:43;2.05;;;1.50;;
19830;SDS011;10076;52.008;4.708;2023-08-08T01:57:08;2.03;;;1.55;;
19830;SDS011;10076;52.008;4.708;2023-08-08T01:59:34;4.50;;;1.52;;
19830;SDS011;10076;52.008;4.708;2023-08-08T02:01:59;4.20;;;1.40;;
19830;SDS011;10076;52.008;4.708;2023-08-08T02:04:24;3.78;;;1.30;;
19830;SDS011;10076;52.008;4.708;2023-08-08T02:06:50;2.97;;;1.70;;
19830;SDS011;10076;52.008;4.708;2023-08-08T02:09:15;1.63;;;1.25;;
19830;SDS011;10076;52.008;4.708;2023-08-08T02:11:40;2.00;;;1.33;;
19830;SDS011;10076;52.008;4.708;2023-08-08T02:14:06;3.42;;;1.20;;
19830;SDS011;10076;52.008;4.708;2023-08-08T02:16:32;2.72;;;1.70;;
19830;SDS011;10076;52.008;4.708;2023-08-08T02:18:57;2.60;;;1.70;;
19830;SDS011;10076;52.008;4.708;2023-08-08T02:21:22;2.42;;;1.40;;
19830;SDS011;10076;52.008;4.708;2023-08-08T02:23:47;1.58;;;1.38;;
19830;SDS011;10076;52.008;4.708;2023-08-08T02:26:13;2.67;;;1.13;;
19830;SDS011;10076;52.008;4.708;2023-08-08T02:28:38;6.45;;;1.38;;
19830;SDS011;10076;52.008;4.708;2023-08-08T02:31:03;1.77;;;1.33;;
19830;SDS011;10076;52.008;4.708;2023-08-08T02:33:29;3.42;;;1.65;;
19830;SDS011;10076;52.008;4.708;2023-08-08T02:35:54;4.97;;;1.42;;
19830;SDS011;10076;52.008;4.708;2023-08-08T02:38:19;3.67;;;1.15;;
19830;SDS011;10076;52.008;4.708;2023-08-08T02:40:45;2.20;;;1.63;;
19830;SDS011;10076;52.008;4.708;2023-08-08T02:43:10;1.70;;;1.20;;
19830;SDS011;10076;52.008;4.708;2023-08-08T02:45:36;1.77;;;1.30;;
19830;SDS011;10076;52.008;4.708;2023-08-08T02:48:01;1.92;;;1.20;;
19830;SDS011;10076;52.008;4.708;2023-08-08T02:50:26;2.50;;;1.48;;
19830;SDS011;10076;52.008;4.708;2023-08-08T02:52:52;2.83;;;1.30;;
19830;SDS011;10076;52.008;4.708;2023-08-08T02:55:17;3.08;;;1.25;;
19830;SDS011;10076;52.008;4.708;2023-08-08T02:57:42;3.10;;;1.48;;
19830;SDS011;10076;52.008;4.708;2023-08-08T03:00:08;1.90;;;1.27;;
19830;SDS011;10076;52.008;4.708;2023-08-08T03:02:35;2.35;;;1.20;;
19830;SDS011;10076;52.008;4.708;2023-08-08T03:05:00;1.88;;;1.40;;
19830;SDS011;10076;52.008;4.708;2023-08-08T03:07:26;1.63;;;1.25;;
19830;SDS011;10076;52.008;4.708;2023-08-08T03:09:51;3.25;;;1.38;;
19830;SDS011;10076;52.008;4.708;2023-08-08T03:12:16;5.20;;;1.40;;
19830;SDS011;10076;52.008;4.708;2023-08-08T03:14:42;3.47;;;1.55;;
19830;SDS011;10076;52.008;4.708;2023-08-08T03:17:07;2.05;;;1.40;;
19830;SDS011;10076;52.008;4.708;2023-08-08T03:19:33;4.75;;;1.50;;
19830;SDS011;10076;52.008;4.708;2023-08-08T03:21:58;4.53;;;1.30;;
19830;SDS011;10076;52.008;4.708;2023-08-08T03:24:23;2.72;;;1.38;;
19830;SDS011;10076;52.008;4.708;2023-08-08T03:26:48;2.42;;;1.25;;
19830;SDS011;10076;52.008;4.708;2023-08-08T03:29:14;2.00;;;1.15;;
19830;SDS011;10076;52.008;4.708;2023-08-08T03:31:39;3.85;;;1.50;;
19830;SDS011;10076;52.008;4.708;2023-08-08T03:34:04;3.55;;;1.25;;
19830;SDS011;10076;52.008;4.708;2023-08-08T03:36:30;4.05;;;1.27;;
19830;SDS011;10076;52.008;4.708;2023-08-08T03:38:55;1.85;;;1.10;;
19830;SDS011;10076;52.008;4.708;2023-08-08T03:41:21;1.80;;;1.30;;
19830;SDS011;10076;52.008;4.708;2023-08-08T03:43:46;2.22;;;1.20;;
19830;SDS011;10076;52.008;4.708;2023-08-08T03:46:11;3.17;;;1.10;;
19830;SDS011;10076;52.008;4.708;2023-08-08T03:48:37;4.72;;;1.38;;
19830;SDS011;10076;52.008;4.708;2023-08-08T03:51:03;1.75;;;0.90;;
19830;SDS011;10076;52.008;4.708;2023-08-08T03:53:29;1.73;;;1.08;;
19830;SDS011;10076;52.008;4.708;2023-08-08T03:55:54;3.63;;;1.30;;
19830;SDS011;10076;52.008;4.708;2023-08-08T03:58:19;3.45;;;1.20;;
19830;SDS011;10076;52.008;4.708;2023-08-08T04:00:45;4.75;;;1.25;;
19830;SDS011;10076;52.008;4.708;2023-08-08T04:03:13;4.70;;;1.15;;
19830;SDS011;10076;52.008;4.708;2023-08-08T04:05:40;1.23;;;0.80;;
19830;SDS011;10076;52.008;4.708;2023-08-08T04:08:06;1.50;;;1.10;;
19830;SDS011;10076;52.008;4.708;2023-08-08T04:10:31;1.38;;;1.00;;
19830;SDS011;10076;52.008;4.708;2023-08-08T04:12:56;0.95;;;0.90;;
19830;SDS011;10076;52.008;4.708;2023-08-08T04:15:22;2.65;;;1.10;;
19830;SDS011;10076;52.008;4.708;2023-08-08T04:17:47;1.70;;;1.58;;
19830;SDS011;10076;52.008;4.708;2023-08-08T04:20:12;2.22;;;1.10;;
19830;SDS011;10076;52.008;4.708;2023-08-08T04:22:39;1.10;;;0.95;;
19830;SDS011;10076;52.008;4.708;2023-08-08T04:25:04;1.80;;;1.00;;
19830;SDS011;10076;52.008;4.708;2023-08-08T04:27:30;1.25;;;0.93;;
19830;SDS011;10076;52.008;4.708;2023-08-08T04:29:56;2.95;;;1.00;;
19830;SDS011;10076;52.008;4.708;2023-08-08T04:32:21;1.48;;;0.93;;
19830;SDS011;10076;52.008;4.708;2023-08-08T04:34:46;1.10;;;1.00;;
19830;SDS011;10076;52.008;4.708;2023-08-08T04:37:12;3.13;;;0.80;;
19830;SDS011;10076;52.008;4.708;2023-08-08T04:39:37;2.95;;;0.80;;
19830;SDS011;10076;52.008;4.708;2023-08-08T04:42:02;1.40;;;0.93;;
19830;SDS011;10076;52.008;4.708;2023-08-08T04:44:28;0.93;;;0.82;;
19830;SDS011;10076;52.008;4.708;2023-08-08T04:46:53;2.30;;;0.90;;
19830;SDS011;10076;52.008;4.708;2023-08-08T04:49:18;1.92;;;0.82;;
19830;SDS011;10076;52.008;4.708;2023-08-08T04:51:44;1.67;;;0.80;;
19830;SDS011;10076;52.008;4.708;2023-08-08T04:54:09;0.98;;;0.80;;
19830;SDS011;10076;52.008;4.708;2023-08-08T04:56:34;0.70;;;0.60;;
19830;SDS011;10076;52.008;4.708;2023-08-08T04:59:00;1.55;;;0.90;;
19830;SDS011;10076;52.008;4.708;2023-08-08T05:01:25;1.58;;;0.90;;
19830;SDS011;10076;52.008;4.708;2023-08-08T05:03:50;2.35;;;0.88;;
19830;SDS011;10076;52.008;4.708;2023-08-08T05:06:16;2.72;;;0.80;;
19830;SDS011;10076;52.008;4.708;2023-08-08T05:08:41;2.60;;;1.15;;
19830;SDS011;10076;52.008;4.708;2023-08-08T05:11:07;6.25;;;1.23;;
19830;SDS011;10076;52.008;4.708;2023-08-08T05:13:32;1.75;;;1.17;;
19830;SDS011;10076;52.008;4.708;2023-08-08T05:15:57;1.55;;;0.93;;
19830;SDS011;10076;52.008;4.708;2023-08-08T05:18:23;1.83;;;0.88;;
19830;SDS011;10076;52.008;4.708;2023-08-08T05:20:48;5.13;;;1.40;;
19830;SDS011;10076;52.008;4.708;2023-08-08T05:23:14;1.98;;;0.77;;
19830;SDS011;10076;52.008;4.708;2023-08-08T05:25:39;4.10;;;0.98;;
19830;SDS011;10076;52.008;4.708;2023-08-08T05:28:05;0.45;;;0.43;;
19830;SDS011;10076;52.008;4.708;2023-08-08T05:30:30;1.00;;;0.80;;
19830;SDS011;10076;52.008;4.708;2023-08-08T05:32:56;4.78;;;0.70;;
19830;SDS011;10076;52.008;4.708;2023-08-08T05:35:21;3.38;;;0.80;;
19830;SDS011;10076;52.008;4.708;2023-08-08T05:37:46;3.58;;;1.02;;
19830;SDS011;10076;52.008;4.708;2023-08-08T05:40:12;3.33;;;1.05;;
19830;SDS011;10076;52.008;4.708;2023-08-08T05:42:38;1.95;;;0.90;;
19830;SDS011;10076;52.008;4.708;2023-08-08T05:45:03;3.10;;;0.80;;
19830;SDS011;10076;52.008;4.708;2023-08-08T05:47:29;1.05;;;0.80;;
19830;SDS011;10076;52.008;4.708;2023-08-08T05:49:55;3.40;;;0.73;;
19830;SDS011;10076;52.008;4.708;2023-08-08T05:52:20;2.88;;;0.88;;
19830;SDS011;10076;52.008;4.708;2023-08-08T05:54:46;0.85;;;0.70;;
19830;SDS011;10076;52.008;4.708;2023-08-08T05:57:12;0.65;;;0.63;;
19830;SDS011;10076;52.008;4.708;2023-08-08T05:59:37;0.80;;;0.52;;
19830;SDS011;10076;52.008;4.708;2023-08-08T06:02:02;7.35;;;1.10;;
19830;SDS011;10076;52.008;4.708;2023-08-08T06:04:28;0.93;;;0.70;;
19830;SDS011;10076;52.008;4.708;2023-08-08T06:06:53;2.45;;;0.75;;
19830;SDS011;10076;52.008;4.708;2023-08-08T06:09:18;1.42;;;0.65;;
19830;SDS011;10076;52.008;4.708;2023-08-08T06:11:44;0.65;;;0.55;;
19830;SDS011;10076;52.008;4.708;2023-08-08T06:14:09;1.27;;;0.70;;
19830;SDS011;10076;52.008;4.708;2023-08-08T06:16:35;1.80;;;0.55;;
19830;SDS011;10076;52.008;4.708;2023-08-08T06:19:00;1.13;;;1.00;;
19830;SDS011;10076;52.008;4.708;2023-08-08T06:21:25;1.98;;;0.52;;
19830;SDS011;10076;52.008;4.708;2023-08-08T06:23:51;2.38;;;0.75;;
19830;SDS011;10076;52.008;4.708;2023-08-08T06:26:19;2.28;;;0.70;;
19830;SDS011;10076;52.008;4.708;2023-08-08T06:28:46;2.03;;;0.77;;
19830;SDS011;10076;52.008;4.708;2023-08-08T06:31:12;3.13;;;0.77;;
19830;SDS011;10076;52.008;4.708;2023-08-08T06:33:37;1.92;;;0.70;;
19830;SDS011;10076;52.008;4.708;2023-08-08T06:36:03;0.57;;;0.50;;
19830;SDS011;10076;52.008;4.708;2023-08-08T06:38:28;1.23;;;0.75;;
19830;SDS011;10076;52.008;4.708;2023-08-08T06:40:55;0.60;;;0.60;;
19830;SDS011;10076;52.008;4.708;2023-08-08T06:43:21;1.10;;;0.63;;
19830;SDS011;10076;52.008;4.708;2023-08-08T06:45:47;1.48;;;0.63;;
19830;SDS011;10076;52.008;4.708;2023-08-08T06:48:12;0.60;;;0.60;;
19830;SDS011;10076;52.008;4.708;2023-08-08T06:50:37;1.65;;;0.50;;
19830;SDS011;10076;52.008;4.708;2023-08-08T06:53:03;2.17;;;0.47;;
19830;SDS011;10076;52.008;4.708;2023-08-08T06:55:28;2.25;;;0.77;;
19830;SDS011;10076;52.008;4.708;2023-08-08T06:57:54;2.00;;;0.65;;
19830;SDS011;10076;52.008;4.708;2023-08-08T07:00:19;2.45;;;0.57;;
19830;SDS011;10076;52.008;4.708;2023-08-08T07:02:44;1.52;;;0.60;;
19830;SDS011;10076;52.008;4.708;2023-08-08T07:05:10;3.83;;;0.77;;
19830;SDS011;10076;52.008;4.708;2023-08-08T07:07:35;1.50;;;0.70;;
19830;SDS011;10076;52.008;4.708;2023-08-08T07:10:01;3.30;;;0.90;;
19830;SDS011;10076;52.008;4.708;2023-08-08T07:12:26;1.83;;;0.82;;
19830;SDS011;10076;52.008;4.708;2023-08-08T07:14:52;1.27;;;0.60;;
19830;SDS011;10076;52.008;4.708;2023-08-08T07:17:17;1.63;;;0.80;;
19830;SDS011;10076;52.008;4.708;2023-08-08T07:19:42;1.25;;;0.70;;
19830;SDS011;10076;52.008;4.708;2023-08-08T07:22:08;2.05;;;0.63;;
19830;SDS011;10076;52.008;4.708;2023-08-08T07:24:33;0.80;;;0.40;;
19830;SDS011;10076;52.008;4.708;2023-08-08T07:26:59;1.35;;;0.65;;
19830;SDS011;10076;52.008;4.708;2023-08-08T07:29:25;0.80;;;0.80;;
19830;SDS011;10076;52.008;4.708;2023-08-08T07:31:53;0.88;;;0.80;;
19830;SDS011;10076;52.008;4.708;2023-08-08T07:34:19;1.83;;;1.08;;
19830;SDS011;10076;52.008;4.708;2023-08-08T07:36:45;1.75;;;0.70;;
19830;SDS011;10076;52.008;4.708;2023-08-08T07:39:12;1.52;;;0.80;;
19830;SDS011;10076;52.008;4.708;2023-08-08T07:41:37;1.05;;;0.77;;
19830;SDS011;10076;52.008;4.708;2023-08-08T07:44:02;4.03;;;1.13;;
19830;SDS011;10076;52.008;4.708;2023-08-08T07:46:28;1.52;;;0.80;;
19830;SDS011;10076;52.008;4.708;2023-08-08T07:48:54;2.25;;;0.60;;
19830;SDS011;10076;52.008;4.708;2023-08-08T07:51:19;2.05;;;0.57;;
19830;SDS011;10076;52.008;4.708;2023-08-08T07:53:44;2.17;;;0.60;;
19830;SDS011;10076;52.008;4.708;2023-08-08T07:56:09;2.78;;;0.60;;
19830;SDS011;10076;52.008;4.708;2023-08-08T07:58:35;0.88;;;0.60;;
19830;SDS011;10076;52.008;4.708;2023-08-08T08:01:00;1.58;;;0.85;;
19830;SDS011;10076;52.008;4.708;2023-08-08T08:03:26;0.52;;;0.45;;
19830;SDS011;10076;52.008;4.708;2023-08-08T08:05:52;2.28;;;0.60;;
19830;SDS011;10076;52.008;4.708;2023-08-08T08:08:17;0.80;;;0.80;;
19830;SDS011;10076;52.008;4.708;2023-08-08T08:10:43;2.92;;;0.60;;
19830;SDS011;10076;52.008;4.708;2023-08-08T08:13:08;4.38;;;1.25;;
19830;SDS011;10076;52.008;4.708;2023-08-08T08:15:35;1.75;;;0.50;;
19830;SDS011;10076;52.008;4.708;2023-08-08T08:18:01;0.70;;;0.70;;
19830;SDS011;10076;52.008;4.708;2023-08-08T08:20:26;1.52;;;0.60;;
19830;SDS011;10076;52.008;4.708;2023-08-08T08:22:51;1.45;;;0.80;;
19830;SDS011;10076;52.008;4.708;2023-08-08T08:25:17;0.68;;;0.68;;
19830;SDS011;10076;52.008;4.708;2023-08-08T08:27:42;0.45;;;0.45;;
19830;SDS011;10076;52.008;4.708;2023-08-08T08:30:08;1.23;;;0.52;;
19830;SDS011;10076;52.008;4.708;2023-08-08T08:32:37;1.30;;;0.60;;
19830;SDS011;10076;52.008;4.708;2023-08-08T08:35:04;2.15;;;1.10;;
19830;SDS011;10076;52.008;4.708;2023-08-08T08:37:31;0.45;;;0.45;;
19830;SDS011;10076;52.008;4.708;2023-08-08T08:39:57;0.73;;;0.68;;
19830;SDS011;10076;52.008;4.708;2023-08-08T08:42:22;1.55;;;0.60;;
19830;SDS011;10076;52.008;4.708;2023-08-08T08:44:49;1.17;;;0.65;;
19830;SDS011;10076;52.008;4.708;2023-08-08T08:47:15;0.50;;;0.50;;
19830;SDS011;10076;52.008;4.708;2023-08-08T08:49:42;0.47;;;0.47;;
19830;SDS011;10076;52.008;4.708;2023-08-08T08:52:10;1.02;;;0.80;;
19830;SDS011;10076;52.008;4.708;2023-08-08T08:54:36;0.93;;;0.80;;
19830;SDS011;10076;52.008;4.708;2023-08-08T08:57:02;2.35;;;0.70;;
19830;SDS011;10076;52.008;4.708;2023-08-08T08:59:28;0.60;;;0.50;;
19830;SDS011;10076;52.008;4.708;2023-08-08T09:01:53;0.70;;;0.70;;
19830;SDS011;10076;52.008;4.708;2023-08-08T09:04:20;0.80;;;0.70;;
19830;SDS011;10076;52.008;4.708;2023-08-08T09:06:46;2.08;;;0.80;;
19830;SDS011;10076;52.008;4.708;2023-08-08T09:09:13;1.25;;;0.95;;
19830;SDS011;10076;52.008;4.708;2023-08-08T09:11:40;2.03;;;0.70;;
19830;SDS011;10076;52.008;4.708;2023-08-08T09:14:19;2.13;;;0.68;;
19830;SDS011;10076;52.008;4.708;2023-08-08T09:16:49;1.00;;;0.73;;
19830;SDS011;10076;52.008;4.708;2023-08-08T09:19:16;1.67;;;0.80;;
19830;SDS011;10076;52.008;4.708;2023-08-08T09:21:45;1.20;;;0.90;;
19830;SDS011;10076;52.008;4.708;2023-08-08T09:24:11;3.92;;;0.70;;
19830;SDS011;10076;52.008;4.708;2023-08-08T09:26:37;1.83;;;0.77;;
19830;SDS011;10076;52.008;4.708;2023-08-08T09:29:04;3.00;;;0.90;;
19830;SDS011;10076;52.008;4.708;2023-08-08T09:31:30;1.00;;;0.60;;
19830;SDS011;10076;52.008;4.708;2023-08-08T09:33:56;3.53;;;0.80;;
19830;SDS011;10076;52.008;4.708;2023-08-08T09:36:23;1.25;;;0.60;;
19830;SDS011;10076;52.008;4.708;2023-08-08T09:38:48;3.03;;;0.90;;
19830;SDS011;10076;52.008;4.708;2023-08-08T09:41:14;1.35;;;0.70;;
19830;SDS011;10076;52.008;4.708;2023-08-08T09:43:42;0.73;;;0.73;;
19830;SDS011;10076;52.008;4.708;2023-08-08T09:46:10;1.17;;;0.70;;
19830;SDS011;10076;52.008;4.708;2023-08-08T09:48:36;1.95;;;0.73;;
19830;SDS011;10076;52.008;4.708;2023-08-08T09:51:04;0.77;;;0.60;;
19830;SDS011;10076;52.008;4.708;2023-08-08T09:53:31;2.08;;;0.70;;
19830;SDS011;10076;52.008;4.708;2023-08-08T09:55:57;0.50;;;0.50;;
19830;SDS011;10076;52.008;4.708;2023-08-08T09:58:22;1.75;;;1.17;;
19830;SDS011;10076;52.008;4.708;2023-08-08T10:00:49;1.77;;;0.70;;
19830;SDS011;10076;52.008;4.708;2023-08-08T10:03:15;0.88;;;0.70;;
19830;SDS011;10076;52.008;4.708;2023-08-08T10:05:42;1.15;;;0.90;;
19830;SDS011;10076;52.008;4.708;2023-08-08T10:08:08;3.50;;;0.70;;
19830;SDS011;10076;52.008;4.708;2023-08-08T10:10:33;1.48;;;0.70;;
19830;SDS011;10076;52.008;4.708;2023-08-08T10:12:59;0.85;;;0.70;;
19830;SDS011;10076;52.008;4.708;2023-08-08T10:15:25;1.23;;;0.77;;
19830;SDS011;10076;52.008;4.708;2023-08-08T10:17:53;1.60;;;0.80;;
19830;SDS011;10076;52.008;4.708;2023-08-08T10:20:20;1.10;;;0.60;;
19830;SDS011;10076;52.008;4.708;2023-08-08T10:22:46;0.88;;;0.65;;
19830;SDS011;10076;52.008;4.708;2023-08-08T10:25:25;1.42;;;0.90;;
19830;SDS011;10076;52.008;4.708;2023-08-08T10:28:08;3.90;;;1.10;;
19830;SDS011;10076;52.008;4.708;2023-08-08T10:30:42;1.88;;;1.02;;
19830;SDS011;10076;52.008;4.708;2023-08-08T10:33:21;3.05;;;0.80;;
19830;SDS011;10076;52.008;4.708;2023-08-08T10:36:01;0.70;;;0.70;;
19830;SDS011;10076;52.008;4.708;2023-08-08T10:38:44;1.13;;;0.70;;
19830;SDS011;10076;52.008;4.708;2023-08-08T10:41:17;1.00;;;0.70;;
19830;SDS011;10076;52.008;4.708;2023-08-08T10:43:54;0.88;;;0.70;;
19830;SDS011;10076;52.008;4.708;2023-08-08T10:46:25;0.85;;;0.80;;
19830;SDS011;10076;52.008;4.708;2023-08-08T10:48:52;1.30;;;0.73;;
19830;SDS011;10076;52.008;4.708;2023-08-08T10:51:19;1.08;;;0.90;;
19830;SDS011;10076;52.008;4.708;2023-08-08T10:53:45;1.13;;;0.70;;
19830;SDS011;10076;52.008;4.708;2023-08-08T10:56:12;1.13;;;0.95;;
19830;SDS011;10076;52.008;4.708;2023-08-08T10:58:39;1.58;;;1.08;;
19830;SDS011;10076;52.008;4.708;2023-08-08T11:01:05;1.13;;;0.80;;
19830;SDS011;10076;52.008;4.708;2023-08-08T11:03:36;1.00;;;0.93;;
19830;SDS011;10076;52.008;4.708;2023-08-08T11:06:03;2.22;;;1.05;;
19830;SDS011;10076;52.008;4.708;2023-08-08T11:08:30;1.30;;;1.00;;
19830;SDS011;10076;52.008;4.708;2023-08-08T11:10:57;1.15;;;0.70;;
19830;SDS011;10076;52.008;4.708;2023-08-08T11:13:22;1.98;;;0.68;;
19830;SDS011;10076;52.008;4.708;2023-08-08T11:15:47;2.90;;;0.70;;
19830;SDS011;10076;52.008;4.708;2023-08-08T11:18:13;4.32;;;1.00;;
19830;SDS011;10076;52.008;4.708;2023-08-08T11:20:38;0.90;;;0.75;;
19830;SDS011;10076;52.008;4.708;2023-08-08T11:23:04;1.15;;;0.90;;
19830;SDS011;10076;52.008;4.708;2023-08-08T11:25:31;1.00;;;0.80;;
19830;SDS011;10076;52.008;4.708;2023-08-08T11:27:57;0.65;;;0.60;;
19830;SDS011;10076;52.008;4.708;2023-08-08T11:30:23;1.95;;;0.65;;
19830;SDS011;10076;52.008;4.708;2023-08-08T11:32:53;1.00;;;0.60;;
19830;SDS011;10076;52.008;4.708;2023-08-08T11:35:20;3.13;;;0.80;;
19830;SDS011;10076;52.008;4.708;2023-08-08T11:37:48;3.22;;;0.73;;
19830;SDS011;10076;52.008;4.708;2023-08-08T11:40:16;1.65;;;0.47;;
19830;SDS011;10076;52.008;4.708;2023-08-08T11:42:41;3.45;;;0.70;;
19830;SDS011;10076;52.008;4.708;2023-08-08T11:45:08;2.00;;;0.60;;
19830;SDS011;10076;52.008;4.708;2023-08-08T11:47:35;1.27;;;0.90;;
19830;SDS011;10076;52.008;4.708;2023-08-08T11:50:04;0.70;;;0.60;;
19830;SDS011;10076;52.008;4.708;2023-08-08T11:52:30;1.30;;;0.70;;
19830;SDS011;10076;52.008;4.708;2023-08-08T11:54:56;0.88;;;0.63;;
19830;SDS011;10076;52.008;4.708;2023-08-08T11:57:24;3.70;;;0.80;;
19830;SDS011;10076;52.008;4.708;2023-08-08T11:59:52;4.85;;;1.00;;
19830;SDS011;10076;52.008;4.708;2023-08-08T12:02:22;2.45;;;0.90;;
19830;SDS011;10076;52.008;4.708;2023-08-08T12:04:52;2.00;;;0.75;;
19830;SDS011;10076;52.008;4.708;2023-08-08T12:07:17;1.30;;;0.68;;
19830;SDS011;10076;52.008;4.708;2023-08-08T12:09:46;2.78;;;1.00;;
19830;SDS011;10076;52.008;4.708;2023-08-08T12:12:12;0.77;;;0.70;;
19830;SDS011;10076;52.008;4.708;2023-08-08T12:14:38;4.43;;;0.77;;
19830;SDS011;10076;52.008;4.708;2023-08-08T12:17:04;1.45;;;0.68;;
19830;SDS011;10076;52.008;4.708;2023-08-08T12:19:30;1.25;;;0.60;;
19830;SDS011;10076;52.008;4.708;2023-08-08T12:21:55;1.55;;;0.60;;
19830;SDS011;10076;52.008;4.708;2023-08-08T12:24:20;0.98;;;0.80;;
19830;SDS011;10076;52.008;4.708;2023-08-08T12:26:46;1.13;;;0.73;;
19830;SDS011;10076;52.008;4.708;2023-08-08T12:29:12;2.33;;;0.82;;
19830;SDS011;10076;52.008;4.708;2023-08-08T12:31:37;3.53;;;1.00;;
19830;SDS011;10076;52.008;4.708;2023-08-08T12:34:04;1.33;;;0.82;;
19830;SDS011;10076;52.008;4.708;2023-08-08T12:36:29;2.40;;;0.90;;
19830;SDS011;10076;52.008;4.708;2023-08-08T12:38:55;0.40;;;0.40;;
19830;SDS011;10076;52.008;4.708;2023-08-08T12:41:20;2.13;;;0.80;;
19830;SDS011;10076;52.008;4.708;2023-08-08T12:43:45;0.95;;;0.80;;
19830;SDS011;10076;52.008;4.708;2023-08-08T12:46:10;3.13;;;0.90;;
19830;SDS011;10076;52.008;4.708;2023-08-08T12:48:36;2.25;;;1.10;;
19830;SDS011;10076;52.008;4.708;2023-08-08T12:51:01;2.95;;;0.95;;
19830;SDS011;10076;52.008;4.708;2023-08-08T12:53:27;0.68;;;0.63;;
19830;SDS011;10076;52.008;4.708;2023-08-08T12:55:52;1.95;;;0.70;;
19830;SDS011;10076;52.008;4.708;2023-08-08T12:58:18;3.72;;;0.90;;
19830;SDS011;10076;52.008;4.708;2023-08-08T13:00:44;2.22;;;0.90;;
19830;SDS011;10076;52.008;4.708;2023-08-08T13:03:10;1.25;;;0.93;;
19830;SDS011;10076;52.008;4.708;2023-08-08T13:05:37;3.05;;;0.68;;
19830;SDS011;10076;52.008;4.708;2023-08-08T13:08:02;3.45;;;1.02;;
19830;SDS011;10076;52.008;4.708;2023-08-08T13:10:28;0.70;;;0.70;;
19830;SDS011;10076;52.008;4.708;2023-08-08T13:12:54;3.03;;;1.08;;
19830;SDS011;10076;52.008;4.708;2023-08-08T13:15:20;1.20;;;1.00;;
19830;SDS011;10076;52.008;4.708;2023-08-08T13:17:46;1.30;;;0.85;;
19830;SDS011;10076;52.008;4.708;2023-08-08T13:20:11;2.33;;;1.00;;
19830;SDS011;10076;52.008;4.708;2023-08-08T13:22:37;1.35;;;0.93;;
19830;SDS011;10076;52.008;4.708;2023-08-08T13:25:03;1.60;;;0.90;;
19830;SDS011;10076;52.008;4.708;2023-08-08T13:27:30;1.25;;;0.70;;
19830;SDS011;10076;52.008;4.708;2023-08-08T13:29:56;5.82;;;1.27;;
19830;SDS011;10076;52.008;4.708;2023-08-08T13:32:22;3.72;;;1.00;;
19830;SDS011;10076;52.008;4.708;2023-08-08T13:34:47;3.00;;;0.90;;
19830;SDS011;10076;52.008;4.708;2023-08-08T13:37:13;1.25;;;0.73;;
19830;SDS011;10076;52.008;4.708;2023-08-08T13:39:38;5.25;;;1.02;;
19830;SDS011;10076;52.008;4.708;2023-08-08T13:42:03;1.10;;;0.70;;
19830;SDS011;10076;52.008;4.708;2023-08-08T13:44:29;3.42;;;0.80;;
19830;SDS011;10076;52.008;4.708;2023-08-08T13:46:54;2.10;;;0.80;;
19830;SDS011;10076;52.008;4.708;2023-08-08T13:49:20;2.20;;;1.20;;
19830;SDS011;10076;52.008;4.708;2023-08-08T13:51:45;1.05;;;0.80;;
19830;SDS011;10076;52.008;4.708;2023-08-08T13:54:11;3.33;;;1.10;;
19830;SDS011;10076;52.008;4.708;2023-08-08T13:56:36;1.10;;;0.90;;
19830;SDS011;10076;52.008;4.708;2023-08-08T13:59:01;4.15;;;1.42;;
19830;SDS011;10076;52.008;4.708;2023-08-08T14:01:27;1.65;;;0.82;;
19830;SDS011;10076;52.008;4.708;2023-08-08T14:03:52;1.67;;;1.05;;
19830;SDS011;10076;52.008;4.708;2023-08-08T14:06:18;2.53;;;1.10;;
19830;SDS011;10076;52.008;4.708;2023-08-08T14:08:43;2.72;;;1.10;;
19830;SDS011;10076;52.008;4.708;2023-08-08T14:11:10;2.67;;;0.98;;
19830;SDS011;10076;52.008;4.708;2023-08-08T14:13:36;3.20;;;1.10;;
19830;SDS011;10076;52.008;4.708;2023-08-08T14:16:02;2.58;;;1.08;;
19830;SDS011;10076;52.008;4.708;2023-08-08T14:18:27;1.17;;;0.90;;
19830;SDS011;10076;52.008;4.708;2023-08-08T14:20:53;1.92;;;1.00;;
19830;SDS011;10076;52.008;4.708;2023-08-08T14:23:19;1.92;;;1.33;;
19830;SDS011;10076;52.008;4.708;2023-08-08T14:25:44;4.00;;;1.30;;
19830;SDS011;10076;52.008;4.708;2023-08-08T14:28:09;1.33;;;1.10;;
19830;SDS011;10076;52.008;4.708;2023-08-08T14:30:35;3.78;;;1.13;;
19830;SDS011;10076;52.008;4.708;2023-08-08T14:33:00;5.57;;;1.17;;
19830;SDS011;10076;52.008;4.708;2023-08-08T14:35:25;1.25;;;1.05;;
19830;SDS011;10076;52.008;4.708;2023-08-08T14:37:53;2.72;;;1.13;;
19830;SDS011;10076;52.008;4.708;2023-08-08T14:40:18;3.05;;;1.20;;
19830;SDS011;10076;52.008;4.708;2023-08-08T14:42:43;1.15;;;1.00;;
19830;SDS011;10076;52.008;4.708;2023-08-08T14:45:09;1.85;;;1.10;;